Weather at Hosea Kutako International Airport

Public forecast

Using degrees Celsius for public forecast. Weather courtesy of forecast.io.

Current aviation weather report (METAR) for Hosea Kutako International Airport

2024/06/19 03:00 (retrieved 22 minutes ago)

FYWH 190300Z 31002KT CAVOK 00/M08 Q1024 NOSIG

Aviation forecast (TAF) for Hosea Kutako International Airport

Forecast is more than 6 hours old.

2024/06/18 18:00 (retrieved 9 hours ago)

TAF FYWH 181600Z 1818/1918 27006KT CAVOK